Time;durP1;ratioP1;P1;durP2;ratioP2;P2;SDS_P1;SDS_P2;PMS_P1;PMS_P2;Temp;Humidity;BMP_temperature;BMP_pressure;BME280_temperature;BME280_humidity;BME280_pressure;Samples;Min_cycle;Max_cycle;Signal;HPM_P1;HPM_P2
2023/04/14 00:02:21;;;;;;;12.45;4.60;;;6.60;76.10;;;;;;5000568;28;20559;-74
2023/04/14 00:04:51;;;;;;;14.07;3.80;;;6.60;74.40;;;;;;5005390;28;20398;-74
2023/04/14 00:07:17;;;;;;;7.80;3.53;;;6.60;73.00;;;;;;4998165;28;20428;-74
2023/04/14 00:09:43;;;;;;;6.07;3.30;;;6.60;74.30;;;;;;4992361;28;20462;-73
2023/04/14 00:12:08;;;;;;;9.00;3.42;;;6.60;72.40;;;;;;4974708;28;20394;-75
2023/04/14 00:14:34;;;;;;;8.40;3.47;;;6.60;74.20;;;;;;4975128;28;20512;-75
2023/04/14 00:17:00;;;;;;;6.90;3.08;;;6.70;71.90;;;;;;4992425;28;20446;-73
2023/04/14 00:19:26;;;;;;;12.57;4.20;;;6.60;71.70;;;;;;4992600;28;20419;-75
2023/04/14 00:21:51;;;;;;;14.32;3.60;;;6.30;74.20;;;;;;4991066;28;20389;-74
2023/04/14 00:24:17;;;;;;;6.47;3.40;;;6.20;76.90;;;;;;4993181;28;20418;-74
2023/04/14 00:26:42;;;;;;;11.00;4.00;;;6.10;79.10;;;;;;4992628;28;20401;-74
2023/04/14 00:29:08;;;;;;;11.10;4.33;;;6.00;81.00;;;;;;4992543;28;20426;-74
2023/04/14 00:31:34;;;;;;;9.90;3.90;;;6.00;82.40;;;;;;4991528;28;20394;-74
2023/04/14 00:34:00;;;;;;;7.07;3.93;;;6.00;82.50;;;;;;4992269;28;20418;-74
2023/04/14 00:36:25;;;;;;;8.70;3.97;;;6.00;82.50;;;;;;4991890;28;20422;-74
2023/04/14 00:38:51;;;;;;;11.73;4.30;;;5.90;83.30;;;;;;4974826;28;20394;-73
2023/04/14 00:41:17;;;;;;;10.95;4.10;;;5.90;84.00;;;;;;4995030;28;20386;-74
2023/04/14 00:43:42;;;;;;;13.10;4.20;;;5.80;84.20;;;;;;4991640;28;20914;-74
2023/04/14 00:46:08;;;;;;;11.50;3.90;;;5.80;85.50;;;;;;4993975;28;20882;-74
2023/04/14 00:48:34;;;;;;;6.65;3.70;;;5.90;84.00;;;;;;4992048;28;20401;-74
2023/04/14 00:51:00;;;;;;;9.30;3.90;;;5.90;83.90;;;;;;4972685;28;20411;-74
2023/04/14 00:53:26;;;;;;;9.80;3.90;;;5.70;84.80;;;;;;4973883;28;20489;-73
2023/04/14 00:55:52;;;;;;;10.77;4.72;;;5.70;86.60;;;;;;4991629;28;20869;-75
2023/04/14 00:58:18;;;;;;;10.50;3.60;;;5.70;85.70;;;;;;4973736;28;20413;-74
2023/04/14 01:00:44;;;;;;;13.00;4.13;;;5.90;86.20;;;;;;4970424;28;20399;-73
2023/04/14 01:03:10;;;;;;;17.10;5.25;;;5.90;83.80;;;;;;4972099;28;20468;-74
2023/04/14 01:05:36;;;;;;;11.75;4.50;;;5.80;84.80;;;;;;4974711;28;20461;-74
2023/04/14 01:08:02;;;;;;;12.85;3.90;;;5.60;85.60;;;;;;4991217;28;20986;-73
2023/04/14 01:10:36;;;;;;;10.30;3.80;;;5.60;87.70;;;;;;4993239;28;20452;-75
2023/04/14 01:13:18;;;;;;;10.65;3.80;;;5.70;88.30;;;;;;4991241;28;20763;-74
2023/04/14 01:15:55;;;;;;;8.75;3.80;;;6.00;85.10;;;;;;4974425;28;20442;-73
2023/04/14 01:18:58;;;;;;;11.55;4.22;;;6.00;81.50;;;;;;4995861;28;20443;-74
2023/04/14 01:21:31;;;;;;;9.68;3.97;;;5.70;83.70;;;;;;4941476;29;20884;-75
2023/04/14 01:24:15;;;;;;;12.63;4.30;;;5.50;87.30;;;;;;4967898;28;20804;-74
2023/04/14 01:26:42;;;;;;;11.48;4.10;;;5.40;89.90;;;;;;4975269;28;20411;-74
2023/04/14 01:29:10;;;;;;;11.68;4.18;;;5.40;91.30;;;;;;4975453;28;20420;-74
2023/04/14 01:31:56;;;;;;;10.57;4.20;;;5.30;92.80;;;;;;4974702;28;20411;-75
2023/04/14 01:34:30;;;;;;;8.48;4.20;;;5.30;93.10;;;;;;4957937;28;20483;-73
2023/04/14 01:37:16;;;;;;;11.10;4.30;;;5.30;93.60;;;;;;4957753;28;20412;-75
2023/04/14 01:39:51;;;;;;;12.98;4.40;;;5.20;93.70;;;;;;4975136;28;20425;-75
2023/04/14 01:42:21;;;;;;;8.80;4.70;;;5.20;94.70;;;;;;4974683;28;20388;-76
2023/04/14 01:44:51;;;;;;;13.60;4.85;;;5.20;95.30;;;;;;4975186;28;20384;-75
2023/04/14 01:47:19;;;;;;;12.80;4.60;;;5.10;95.50;;;;;;4976909;28;20395;-75
2023/04/14 01:49:47;;;;;;;10.98;4.70;;;5.10;96.20;;;;;;4975594;28;20845;-75
2023/04/14 01:52:14;;;;;;;10.45;4.10;;;5.10;96.40;;;;;;4974360;28;20406;-73
2023/04/14 01:54:42;;;;;;;7.43;3.92;;;5.20;96.60;;;;;;4974754;28;20403;-74
2023/04/14 01:57:09;;;;;;;10.30;4.32;;;5.20;96.70;;;;;;4974751;28;20408;-74
2023/04/14 01:59:36;;;;;;;11.88;4.70;;;5.20;96.60;;;;;;4975003;28;20443;-74
2023/04/14 02:02:06;;;;;;;11.47;4.70;;;5.20;96.00;;;;;;4975350;28;20392;-74
2023/04/14 02:04:34;;;;;;;10.55;4.20;;;5.20;96.00;;;;;;4960353;28;20403;-73
2023/04/14 02:07:04;;;;;;;11.13;4.00;;;5.20;95.90;;;;;;4957798;28;20403;-74
2023/04/14 02:09:31;;;;;;;10.63;4.57;;;5.20;95.50;;;;;;4974307;28;20410;-74
2023/04/14 02:11:59;;;;;;;12.88;4.20;;;5.30;95.20;;;;;;4973702;28;20955;-74
2023/04/14 02:14:26;;;;;;;12.93;4.70;;;5.40;93.10;;;;;;4974716;28;20881;-75
2023/04/14 02:16:53;;;;;;;9.73;4.35;;;5.30;92.80;;;;;;4974209;28;20415;-74
2023/04/14 02:19:20;;;;;;;14.15;4.70;;;5.40;92.10;;;;;;4974313;28;20466;-74
2023/04/14 02:21:48;;;;;;;12.02;4.57;;;5.40;91.80;;;;;;4973929;28;20905;-75
2023/04/14 02:24:14;;;;;;;10.50;4.20;;;5.40;90.70;;;;;;4974176;28;20401;-75
2023/04/14 02:26:50;;;;;;;12.80;4.50;;;5.50;91.10;;;;;;4973943;28;20384;-74
2023/04/14 02:29:21;;;;;;;11.77;4.70;;;5.40;90.60;;;;;;4973998;28;20941;-73
2023/04/14 02:31:53;;;;;;;11.73;4.80;;;5.40;90.50;;;;;;4973598;28;20403;-75
2023/04/14 02:34:27;;;;;;;9.80;4.70;;;5.30;90.70;;;;;;4974462;28;20892;-74
2023/04/14 02:36:55;;;;;;;12.57;4.90;;;5.30;91.30;;;;;;4974363;28;21437;-74
2023/04/14 02:39:32;;;;;;;8.77;4.30;;;5.30;92.10;;;;;;4974531;28;20387;-75
2023/04/14 02:42:06;;;;;;;8.32;4.28;;;5.40;91.40;;;;;;4974494;28;20384;-74
2023/04/14 02:44:37;;;;;;;14.77;4.78;;;5.40;89.90;;;;;;4974227;28;20384;-73
2023/04/14 02:47:09;;;;;;;11.63;4.90;;;5.40;90.60;;;;;;4983217;28;20403;-74
2023/04/14 02:49:45;;;;;;;9.45;4.93;;;5.40;90.10;;;;;;4984861;28;20794;-75
2023/04/14 02:52:14;;;;;;;9.13;4.45;;;5.40;90.20;;;;;;4974556;28;20928;-74
2023/04/14 02:54:42;;;;;;;8.25;4.45;;;5.40;89.20;;;;;;4974177;28;20431;-75
2023/04/14 02:57:08;;;;;;;10.75;5.18;;;5.40;90.20;;;;;;4956564;28;20792;-74
2023/04/14 02:59:35;;;;;;;14.35;5.45;;;5.30;91.00;;;;;;4974584;28;20384;-73
2023/04/14 03:02:03;;;;;;;12.82;5.30;;;5.30;91.40;;;;;;4973664;28;20893;-74
2023/04/14 03:04:33;;;;;;;14.45;5.70;;;5.30;91.70;;;;;;4974328;28;20396;-75
2023/04/14 03:07:00;;;;;;;15.80;6.30;;;5.30;91.90;;;;;;4973979;28;20427;-75
2023/04/14 03:09:28;;;;;;;12.63;6.20;;;5.30;92.80;;;;;;4956706;28;20396;-74
2023/04/14 03:11:55;;;;;;;17.30;7.10;;;5.30;92.80;;;;;;4974611;28;20396;-74
2023/04/14 03:14:21;;;;;;;15.60;6.53;;;5.30;92.90;;;;;;4956318;28;20459;-74
2023/04/14 03:16:52;;;;;;;11.50;6.20;;;5.20;92.90;;;;;;4973620;28;20444;-74
2023/04/14 03:19:22;;;;;;;16.85;7.10;;;5.20;92.70;;;;;;4973973;28;20437;-74
2023/04/14 03:21:53;;;;;;;16.17;7.35;;;5.20;93.60;;;;;;4972976;28;20483;-74
2023/04/14 03:24:29;;;;;;;13.95;7.40;;;5.20;94.60;;;;;;4975331;28;20416;-73
2023/04/14 03:27:01;;;;;;;13.20;7.45;;;5.10;94.30;;;;;;4998185;28;20407;-74
2023/04/14 03:29:31;;;;;;;18.55;8.40;;;5.00;95.20;;;;;;4998138;28;20412;-73
2023/04/14 03:32:01;;;;;;;19.10;8.73;;;5.00;96.50;;;;;;5007486;23;20429;-72
2023/04/14 03:34:30;;;;;;;14.93;8.32;;;5.00;98.40;;;;;;4995027;28;20387;-73
2023/04/14 03:36:58;;;;;;;14.98;8.10;;;4.90;97.40;;;;;;4996003;28;20406;-75
2023/04/14 03:39:26;;;;;;;16.97;8.57;;;4.90;98.70;;;;;;5000322;28;20455;-72
2023/04/14 03:41:54;;;;;;;17.87;8.67;;;4.90;99.50;;;;;;4996463;28;20467;-72
2023/04/14 03:44:21;;;;;;;16.25;8.77;;;4.90;99.90;;;;;;4995742;28;20476;-73
2023/04/14 03:46:48;;;;;;;14.00;8.70;;;4.90;99.90;;;;;;5001970;28;20395;-71
2023/04/14 03:49:16;;;;;;;18.73;9.35;;;4.80;99.90;;;;;;5009017;28;20971;-72
2023/04/14 03:51:44;;;;;;;23.05;9.48;;;4.90;99.90;;;;;;4997516;28;20401;-74
2023/04/14 03:54:14;;;;;;;16.77;9.30;;;4.80;99.90;;;;;;4997460;28;20400;-72
2023/04/14 03:56:44;;;;;;;19.17;9.43;;;4.80;99.90;;;;;;4992603;28;20602;-72
2023/04/14 03:59:12;;;;;;;21.97;10.07;;;4.80;99.90;;;;;;4993736;28;20387;-74
2023/04/14 04:01:39;;;;;;;17.77;9.63;;;4.90;99.90;;;;;;4995600;28;20425;-71
2023/04/14 04:04:06;;;;;;;21.00;10.20;;;4.90;99.90;;;;;;4993488;28;20906;-72
2023/04/14 04:06:32;;;;;;;20.05;11.10;;;4.90;99.90;;;;;;4993981;28;20386;-71
2023/04/14 04:09:00;;;;;;;18.42;10.88;;;4.80;99.90;;;;;;4994263;28;20467;-71
2023/04/14 04:11:27;;;;;;;17.95;11.40;;;4.80;99.90;;;;;;4991609;28;20926;-72
2023/04/14 04:13:55;;;;;;;18.52;11.43;;;4.80;99.90;;;;;;4992153;28;20410;-72
2023/04/14 04:16:21;;;;;;;22.10;12.23;;;4.80;99.90;;;;;;4992030;28;20501;-74
2023/04/14 04:18:48;;;;;;;20.73;12.57;;;4.90;99.90;;;;;;4992338;28;20394;-71
2023/04/14 04:21:16;;;;;;;20.92;11.90;;;4.90;99.90;;;;;;4991342;28;20382;-72
2023/04/14 04:23:45;;;;;;;21.63;11.63;;;4.90;99.90;;;;;;4992234;28;20465;-72
2023/04/14 04:26:11;;;;;;;23.33;13.05;;;4.90;99.90;;;;;;4994567;28;20454;-73
2023/04/14 04:28:39;;;;;;;24.38;12.90;;;4.90;99.90;;;;;;5000812;28;20440;-72
2023/04/14 04:31:05;;;;;;;25.58;12.43;;;4.90;99.90;;;;;;4996537;28;20405;-71
2023/04/14 04:33:31;;;;;;;22.33;12.90;;;4.90;99.90;;;;;;4992268;28;20449;-73
2023/04/14 04:35:57;;;;;;;23.30;11.93;;;4.90;99.90;;;;;;4991885;28;20481;-72
2023/04/14 04:38:23;;;;;;;21.17;12.93;;;5.00;99.90;;;;;;4992603;28;20478;-71
2023/04/14 04:40:48;;;;;;;21.48;12.75;;;5.00;99.90;;;;;;4992593;28;20547;-72
2023/04/14 04:43:17;;;;;;;24.27;12.70;;;5.00;99.90;;;;;;4991908;28;20962;-71
2023/04/14 04:45:57;;;;;;;18.73;12.55;;;5.00;99.90;;;;;;4993196;28;20390;-72
2023/04/14 04:48:23;;;;;;;19.95;11.80;;;5.00;99.90;;;;;;4994012;28;20383;-72
2023/04/14 04:50:48;;;;;;;18.30;11.40;;;5.10;99.90;;;;;;4976987;28;20421;-73
2023/04/14 04:53:14;;;;;;;27.52;12.35;;;5.10;99.90;;;;;;5014017;28;20387;-71
2023/04/14 04:55:41;;;;;;;21.40;11.57;;;5.10;99.90;;;;;;5014276;28;20414;-70
2023/04/14 04:58:07;;;;;;;17.20;10.85;;;5.10;99.90;;;;;;5014187;28;20422;-71
2023/04/14 05:00:33;;;;;;;17.15;11.00;;;5.10;99.90;;;;;;5005428;28;20442;-71
2023/04/14 05:02:58;;;;;;;22.77;11.18;;;5.10;99.90;;;;;;5003585;28;20398;-71
2023/04/14 05:05:24;;;;;;;20.70;9.52;;;5.00;99.90;;;;;;4978544;28;20485;-71
2023/04/14 05:07:49;;;;;;;19.60;10.50;;;5.00;99.90;;;;;;4996491;28;20512;-71
2023/04/14 05:10:15;;;;;;;18.10;9.00;;;5.10;99.90;;;;;;4995566;28;20483;-73
2023/04/14 05:12:40;;;;;;;18.90;9.30;;;5.10;99.90;;;;;;4995084;28;20444;-72
2023/04/14 05:15:08;;;;;;;22.40;10.00;;;5.10;99.90;;;;;;4995240;28;20458;-72
2023/04/14 05:17:34;;;;;;;17.45;9.27;;;5.10;99.90;;;;;;4996441;28;20417;-73
2023/04/14 05:20:01;;;;;;;14.52;8.30;;;5.10;99.90;;;;;;4999202;28;20393;-72
2023/04/14 05:22:27;;;;;;;14.50;8.02;;;5.20;98.60;;;;;;4999051;28;20913;-71
2023/04/14 05:24:52;;;;;;;13.93;7.70;;;5.20;98.00;;;;;;5001199;28;20433;-71
2023/04/14 05:27:18;;;;;;;14.80;7.30;;;5.30;98.20;;;;;;5000599;28;20379;-73
2023/04/14 05:29:43;;;;;;;11.93;7.37;;;5.30;96.90;;;;;;4996681;28;20408;-72
2023/04/14 05:32:11;;;;;;;15.40;6.43;;;5.40;94.10;;;;;;4994761;28;20440;-73
2023/04/14 05:34:37;;;;;;;14.43;6.43;;;5.40;93.20;;;;;;4995412;28;20430;-72
2023/04/14 05:37:02;;;;;;;12.45;6.57;;;5.50;92.50;;;;;;4977443;28;20441;-72
2023/04/14 05:39:28;;;;;;;14.38;6.60;;;5.50;91.30;;;;;;4995354;28;20846;-72
2023/04/14 05:41:53;;;;;;;10.27;6.43;;;5.60;89.70;;;;;;4976745;28;20702;-73
2023/04/14 05:44:19;;;;;;;14.00;6.65;;;5.70;88.40;;;;;;4995948;28;20425;-73
2023/04/14 05:46:45;;;;;;;11.57;5.95;;;5.80;84.70;;;;;;4995087;28;20788;-71
2023/04/14 05:49:11;;;;;;;14.43;5.95;;;5.90;84.20;;;;;;4995249;28;20427;-74
2023/04/14 05:51:36;;;;;;;11.40;6.40;;;5.90;83.30;;;;;;4994252;28;20390;-72
2023/04/14 05:54:02;;;;;;;12.80;5.60;;;6.00;82.80;;;;;;4977408;28;20410;-74
2023/04/14 05:56:28;;;;;;;10.18;6.10;;;6.10;81.00;;;;;;4995930;28;20465;-72
2023/04/14 05:58:54;;;;;;;13.40;5.82;;;6.10;79.40;;;;;;4995187;28;20382;-72
2023/04/14 06:01:20;;;;;;;11.55;5.50;;;6.20;79.10;;;;;;4994206;28;20390;-72
2023/04/14 06:03:45;;;;;;;8.87;5.70;;;6.30;77.00;;;;;;4995271;28;20493;-72
2023/04/14 06:06:11;;;;;;;13.05;5.40;;;6.40;75.30;;;;;;4996209;28;20399;-71
2023/04/14 06:08:36;;;;;;;10.82;5.30;;;6.40;75.20;;;;;;4996501;28;20406;-72
2023/04/14 06:11:02;;;;;;;14.00;6.15;;;6.50;74.90;;;;;;4994846;28;20931;-71
2023/04/14 06:13:28;;;;;;;14.18;6.18;;;6.60;74.00;;;;;;4995255;28;20437;-71
2023/04/14 06:15:54;;;;;;;16.77;6.03;;;6.60;73.50;;;;;;4996171;28;20880;-71
2023/04/14 06:18:21;;;;;;;11.30;6.10;;;6.60;73.10;;;;;;4996537;28;20953;-71
2023/04/14 06:20:47;;;;;;;12.32;5.78;;;6.70;71.40;;;;;;5006812;28;20422;-70
2023/04/14 06:23:13;;;;;;;9.10;6.18;;;6.70;71.40;;;;;;5008332;28;20401;-71
2023/04/14 06:25:39;;;;;;;13.63;6.30;;;6.80;70.50;;;;;;4995777;28;20609;-72
2023/04/14 06:28:05;;;;;;;13.20;5.90;;;6.90;69.40;;;;;;4976741;28;20441;-72
2023/04/14 06:30:33;;;;;;;11.00;5.90;;;7.00;68.70;;;;;;4994381;28;20456;-73
2023/04/14 06:33:03;;;;;;;17.40;6.80;;;7.10;67.10;;;;;;4993708;28;20399;-72
2023/04/14 06:35:30;;;;;;;17.40;7.30;;;7.10;67.50;;;;;;4994155;28;20393;-73
2023/04/14 06:37:56;;;;;;;11.60;6.20;;;7.20;67.80;;;;;;4994335;28;20406;-70
2023/04/14 06:40:21;;;;;;;14.25;6.68;;;7.30;67.90;;;;;;4994451;28;20401;-71
2023/04/14 06:42:47;;;;;;;12.25;6.80;;;7.50;65.90;;;;;;4993674;28;20894;-71
2023/04/14 06:45:12;;;;;;;14.30;6.68;;;7.50;65.60;;;;;;4994631;28;20806;-72
2023/04/14 06:47:38;;;;;;;15.85;6.93;;;7.60;65.30;;;;;;4994855;28;20386;-72
2023/04/14 06:50:04;;;;;;;14.13;7.03;;;7.60;65.00;;;;;;4995488;28;20493;-70
2023/04/14 06:52:29;;;;;;;15.27;7.72;;;7.70;62.50;;;;;;4994732;28;20729;-73
2023/04/14 06:54:55;;;;;;;14.20;7.97;;;7.80;61.80;;;;;;5007886;28;20375;-72
2023/04/14 06:57:21;;;;;;;16.60;8.50;;;7.90;60.20;;;;;;5008548;28;20413;-71
2023/04/14 06:59:46;;;;;;;20.27;8.20;;;8.10;60.00;;;;;;5002921;28;20403;-72
2023/04/14 07:02:12;;;;;;;15.03;7.83;;;8.20;59.60;;;;;;4993984;28;20393;-72
2023/04/14 07:04:37;;;;;;;18.17;8.10;;;8.40;57.50;;;;;;4995245;28;20482;-72
2023/04/14 07:07:03;;;;;;;13.53;7.60;;;8.40;57.00;;;;;;4994383;28;20802;-71
2023/04/14 07:09:29;;;;;;;24.03;8.20;;;8.50;56.20;;;;;;4993812;28;20402;-70
2023/04/14 07:11:56;;;;;;;16.00;8.33;;;8.50;55.40;;;;;;4992823;28;20391;-72
2023/04/14 07:14:22;;;;;;;17.25;8.38;;;8.70;55.70;;;;;;4975474;28;20406;-71
2023/04/14 07:16:49;;;;;;;17.00;7.95;;;8.70;54.30;;;;;;4976348;28;20810;-72
2023/04/14 07:19:15;;;;;;;18.55;7.82;;;8.80;53.00;;;;;;4994167;28;20389;-72
2023/04/14 07:21:41;;;;;;;15.47;8.27;;;8.80;52.50;;;;;;4976154;28;20390;-71
2023/04/14 07:24:06;;;;;;;15.33;7.50;;;9.00;52.20;;;;;;4994153;28;20394;-73
2023/04/14 07:26:32;;;;;;;16.90;7.70;;;9.20;49.90;;;;;;4994098;28;20397;-72
2023/04/14 07:28:57;;;;;;;18.17;8.13;;;9.30;49.20;;;;;;4976209;28;20390;-72
2023/04/14 07:31:23;;;;;;;13.20;7.53;;;9.30;49.80;;;;;;4992819;28;20901;-73
2023/04/14 07:33:49;;;;;;;16.27;7.37;;;9.30;47.30;;;;;;4993348;28;20398;-73
2023/04/14 07:36:14;;;;;;;16.37;7.23;;;9.40;46.40;;;;;;4993880;28;20402;-73
2023/04/14 07:38:40;;;;;;;17.33;7.33;;;9.40;46.50;;;;;;4993280;28;20391;-71
2023/04/14 07:41:06;;;;;;;16.87;8.37;;;9.60;45.70;;;;;;4975214;28;20426;-72
2023/04/14 07:43:34;;;;;;;16.67;7.72;;;9.70;44.10;;;;;;4993789;28;20414;-72
2023/04/14 07:46:04;;;;;;;15.77;7.25;;;9.70;43.40;;;;;;4993887;28;20444;-72
2023/04/14 07:48:30;;;;;;;13.45;6.80;;;9.80;43.10;;;;;;4996713;28;20473;-72
2023/04/14 07:50:57;;;;;;;15.18;6.63;;;10.00;41.20;;;;;;4999387;28;20383;-73
2023/04/14 07:53:23;;;;;;;9.93;6.53;;;10.00;41.30;;;;;;4997609;28;20446;-72
2023/04/14 07:55:48;;;;;;;15.35;6.20;;;10.00;40.40;;;;;;4997510;28;20791;-72
2023/04/14 07:58:14;;;;;;;14.70;6.80;;;10.10;39.90;;;;;;4982106;28;20394;-73
2023/04/14 08:00:40;;;;;;;18.75;7.20;;;10.30;39.10;;;;;;4999953;28;20398;-73
2023/04/14 08:03:06;;;;;;;14.18;7.07;;;10.30;38.00;;;;;;4999423;28;20382;-73
2023/04/14 08:05:32;;;;;;;14.02;6.00;;;10.40;38.40;;;;;;4999869;28;20378;-72
2023/04/14 08:07:58;;;;;;;20.15;6.60;;;10.40;37.80;;;;;;4999192;28;20416;-71
2023/04/14 08:10:24;;;;;;;13.57;5.93;;;10.70;36.10;;;;;;5000945;28;20465;-73
2023/04/14 08:12:50;;;;;;;11.82;5.45;;;10.80;34.80;;;;;;4999801;28;20401;-72
2023/04/14 08:15:15;;;;;;;17.30;5.90;;;11.00;33.20;;;;;;4998216;28;20382;-74
2023/04/14 08:17:41;;;;;;;16.13;5.70;;;11.10;32.90;;;;;;5002435;28;20472;-72
2023/04/14 08:20:07;;;;;;;18.92;5.47;;;11.20;32.50;;;;;;5003213;28;20482;-72
2023/04/14 08:22:33;;;;;;;14.63;5.75;;;11.10;31.60;;;;;;4984831;28;20391;-73
2023/04/14 08:24:59;;;;;;;15.35;6.00;;;11.10;31.20;;;;;;5003645;28;20394;-71
2023/04/14 08:27:24;;;;;;;15.35;6.22;;;11.20;31.40;;;;;;5003623;28;20393;-72
2023/04/14 08:29:50;;;;;;;13.00;5.33;;;11.20;31.30;;;;;;5002383;28;20386;-74
2023/04/14 08:32:16;;;;;;;17.00;4.72;;;11.30;31.10;;;;;;4985948;28;20410;-72
2023/04/14 08:34:41;;;;;;;17.77;5.47;;;11.40;29.90;;;;;;5004119;28;20724;-73
2023/04/14 08:37:07;;;;;;;15.17;5.33;;;11.40;30.10;;;;;;5001267;28;20505;-72
2023/04/14 08:39:32;;;;;;;13.37;5.50;;;11.50;29.80;;;;;;5004579;28;20401;-74
2023/04/14 08:41:58;;;;;;;16.13;5.43;;;11.60;30.30;;;;;;4986091;28;20417;-74
2023/04/14 08:44:24;;;;;;;12.77;4.73;;;11.80;27.90;;;;;;5003922;28;20389;-72
2023/04/14 08:46:53;;;;;;;12.90;5.10;;;11.80;27.90;;;;;;5003241;28;20389;-72
2023/04/14 08:49:42;;;;;;;12.93;4.97;;;11.90;27.50;;;;;;5003440;28;20400;-73
2023/04/14 08:52:13;;;;;;;14.93;4.90;;;11.80;26.40;;;;;;5003409;28;20491;-72
2023/04/14 08:54:40;;;;;;;11.55;4.88;;;11.70;26.30;;;;;;5008550;28;20888;-71
2023/04/14 08:57:09;;;;;;;12.63;5.10;;;11.70;26.90;;;;;;5005829;28;20406;-73
2023/04/14 08:59:35;;;;;;;12.13;4.60;;;12.00;27.60;;;;;;5002421;28;20859;-74
2023/04/14 09:02:04;;;;;;;13.73;4.20;;;12.00;25.30;;;;;;5006545;28;20393;-72
2023/04/14 09:04:30;;;;;;;8.60;4.30;;;12.10;25.60;;;;;;5004455;28;20743;-71
2023/04/14 09:06:56;;;;;;;13.88;4.65;;;12.20;25.60;;;;;;5003347;28;20859;-72
2023/04/14 09:09:22;;;;;;;15.27;4.57;;;12.20;25.30;;;;;;5001915;28;20386;-72
2023/04/14 09:11:48;;;;;;;9.68;4.00;;;12.30;25.00;;;;;;4996432;28;20820;-72
2023/04/14 09:14:15;;;;;;;12.18;3.72;;;12.50;23.50;;;;;;4994011;28;20477;-72
2023/04/14 09:16:40;;;;;;;11.45;4.22;;;12.50;24.00;;;;;;4992992;28;20557;-74
2023/04/14 09:19:07;;;;;;;10.52;4.13;;;12.50;23.40;;;;;;4993560;28;20426;-74
2023/04/14 09:21:32;;;;;;;14.30;4.28;;;12.60;23.30;;;;;;4992426;28;20744;-72
2023/04/14 09:23:58;;;;;;;7.93;2.90;;;12.60;23.20;;;;;;4993029;28;20417;-71
2023/04/14 09:26:26;;;;;;;10.07;3.47;;;12.60;19.90;;;;;;4993143;28;20397;-75
2023/04/14 09:28:51;;;;;;;13.77;4.88;;;12.60;20.40;;;;;;4974246;28;20399;-70
2023/04/14 09:31:18;;;;;;;13.93;4.30;;;12.70;22.00;;;;;;4994665;28;20725;-72
2023/04/14 09:33:47;;;;;;;9.18;4.28;;;12.90;22.00;;;;;;4982237;28;20399;-71
2023/04/14 09:36:23;;;;;;;16.05;4.85;;;12.90;20.80;;;;;;4982507;28;20537;-72
2023/04/14 09:38:50;;;;;;;13.63;4.35;;;13.00;20.50;;;;;;5002508;28;20414;-72
2023/04/14 09:41:17;;;;;;;10.43;3.80;;;13.00;19.20;;;;;;5001901;28;20393;-73
2023/04/14 09:43:44;;;;;;;14.15;4.63;;;13.10;19.50;;;;;;5000949;28;20417;-73
2023/04/14 09:46:10;;;;;;;12.75;3.55;;;13.30;19.50;;;;;;5001915;28;20807;-73
2023/04/14 09:48:51;;;;;;;12.65;4.20;;;13.50;18.30;;;;;;4984398;28;20399;-72
2023/04/14 09:51:21;;;;;;;10.82;3.60;;;13.50;18.20;;;;;;5000990;28;20421;-72
2023/04/14 09:53:47;;;;;;;12.95;3.90;;;13.70;18.00;;;;;;5003367;28;20434;-71
2023/04/14 09:56:12;;;;;;;9.30;3.38;;;13.90;16.90;;;;;;5002336;28;20406;-72
2023/04/14 09:58:42;;;;;;;10.57;3.65;;;13.80;17.30;;;;;;5002469;28;20406;-74
2023/04/14 10:01:16;;;;;;;8.18;3.13;;;13.70;16.60;;;;;;5000409;28;20394;-74
2023/04/14 10:03:44;;;;;;;11.93;3.10;;;13.70;16.20;;;;;;5000500;28;20386;-74
2023/04/14 10:06:21;;;;;;;11.32;2.90;;;13.70;16.20;;;;;;5001333;28;20396;-73
2023/04/14 10:08:59;;;;;;;13.63;3.70;;;13.70;15.90;;;;;;4983803;28;20457;-74
2023/04/14 10:11:31;;;;;;;9.53;3.17;;;13.90;16.80;;;;;;5001196;28;20928;-73
2023/04/14 10:14:05;;;;;;;9.70;3.03;;;13.90;15.90;;;;;;5001953;28;20418;-72
2023/04/14 10:16:31;;;;;;;7.80;2.78;;;13.90;16.00;;;;;;5000795;28;20403;-76
2023/04/14 10:18:57;;;;;;;8.88;2.70;;;14.00;15.40;;;;;;5001187;28;20460;-72
2023/04/14 10:21:23;;;;;;;11.00;3.20;;;14.10;14.80;;;;;;4983509;28;20407;-74
2023/04/14 10:23:50;;;;;;;10.98;3.00;;;14.10;15.20;;;;;;5000326;28;20490;-72
2023/04/14 10:26:16;;;;;;;9.43;3.00;;;14.00;15.20;;;;;;4983045;28;20406;-73
2023/04/14 10:28:50;;;;;;;8.93;2.85;;;14.10;14.80;;;;;;4982755;28;20426;-71
2023/04/14 10:31:33;;;;;;;8.95;2.70;;;14.30;15.90;;;;;;4983444;28;20411;-72
2023/04/14 10:34:06;;;;;;;12.07;2.97;;;14.40;14.50;;;;;;5000936;28;20453;-73
2023/04/14 10:36:35;;;;;;;11.57;3.10;;;14.40;14.50;;;;;;5000081;28;20403;-73
2023/04/14 10:39:04;;;;;;;6.53;3.00;;;14.50;13.80;;;;;;4999976;28;20386;-75
2023/04/14 10:41:48;;;;;;;13.15;2.90;;;14.50;12.50;;;;;;4983090;28;20441;-74
2023/04/14 10:44:31;;;;;;;8.05;2.80;;;14.80;11.50;;;;;;5002000;28;20419;-71
2023/04/14 10:46:59;;;;;;;7.70;2.67;;;14.70;11.10;;;;;;5000400;28;20966;-72
2023/04/14 10:49:30;;;;;;;10.43;2.88;;;14.70;11.50;;;;;;4983933;28;20961;-74
2023/04/14 10:52:21;;;;;;;5.70;2.50;;;14.90;9.10;;;;;;5000676;28;20388;-74
2023/04/14 10:55:01;;;;;;;5.60;2.30;;;14.90;9.00;;;;;;4989000;28;20406;-73
2023/04/14 10:57:28;;;;;;;4.40;1.70;;;14.90;7.20;;;;;;5000204;28;20422;-73
2023/04/14 10:59:56;;;;;;;6.15;2.25;;;14.90;6.70;;;;;;4999807;28;20475;-73
2023/04/14 11:02:26;;;;;;;7.78;2.30;;;14.90;6.10;;;;;;4999807;28;20450;-74
2023/04/14 11:05:09;;;;;;;6.65;2.50;;;14.90;7.20;;;;;;4999818;28;20386;-73
2023/04/14 11:07:53;;;;;;;7.53;2.40;;;14.90;7.80;;;;;;5000564;28;20394;-72
2023/04/14 11:10:19;;;;;;;8.75;2.33;;;14.90;7.40;;;;;;4983598;28;20486;-72
2023/04/14 11:12:46;;;;;;;6.82;2.40;;;15.00;8.50;;;;;;5000576;28;20426;-72
2023/04/14 11:15:12;;;;;;;11.30;2.63;;;14.90;9.00;;;;;;5000118;28;20382;-74
2023/04/14 11:17:42;;;;;;;7.78;2.20;;;14.90;8.80;;;;;;5000547;28;20398;-73
2023/04/14 11:20:20;;;;;;;9.25;2.83;;;15.10;9.40;;;;;;4999026;28;20478;-73
2023/04/14 11:22:48;;;;;;;5.60;2.10;;;15.20;8.20;;;;;;5002009;28;20485;-74
2023/04/14 11:25:15;;;;;;;5.35;2.00;;;15.20;6.50;;;;;;5009382;28;20398;-70
2023/04/14 11:27:42;;;;;;;7.50;2.30;;;15.50;7.10;;;;;;4988545;28;20402;-73
2023/04/14 11:30:12;;;;;;;8.73;2.72;;;15.50;7.50;;;;;;4998486;28;20409;-73
2023/04/14 11:32:47;;;;;;;8.50;2.40;;;15.50;8.20;;;;;;4997553;28;20497;-73
2023/04/14 11:35:14;;;;;;;8.53;2.30;;;15.70;6.10;;;;;;4999729;28;20395;-73
2023/04/14 11:37:39;;;;;;;5.93;1.80;;;15.80;5.00;;;;;;4998349;28;20406;-75
2023/04/14 11:40:07;;;;;;;8.88;2.10;;;15.70;4.50;;;;;;4980577;28;20398;-74
2023/04/14 11:42:32;;;;;;;4.55;1.80;;;15.70;5.80;;;;;;4996761;28;20759;-73
2023/04/14 11:44:58;;;;;;;6.40;1.70;;;15.90;6.00;;;;;;4998150;28;20457;-71
2023/04/14 11:47:24;;;;;;;3.38;1.50;;;15.90;4.30;;;;;;4998111;28;20401;-72
2023/04/14 11:49:50;;;;;;;7.28;2.30;;;15.80;3.30;;;;;;4998204;28;20390;-74
2023/04/14 11:52:19;;;;;;;3.78;1.83;;;15.80;3.60;;;;;;4997362;28;20390;-72
2023/04/14 11:54:45;;;;;;;5.30;1.92;;;15.80;5.40;;;;;;4979525;28;20418;-72
2023/04/14 11:57:12;;;;;;;4.47;1.75;;;16.10;5.40;;;;;;4997485;28;20403;-73
2023/04/14 11:59:42;;;;;;;6.53;2.50;;;16.20;4.90;;;;;;4978681;28;20437;-71
2023/04/14 12:02:18;;;;;;;7.60;2.08;;;16.30;4.70;;;;;;4994981;28;20486;-73
2023/04/14 12:04:45;;;;;;;6.97;2.03;;;16.40;3.90;;;;;;4979684;28;20395;-73
2023/04/14 12:07:12;;;;;;;7.30;2.00;;;16.50;4.40;;;;;;4996505;28;20398;-73
2023/04/14 12:09:43;;;;;;;6.32;2.00;;;16.70;3.00;;;;;;4997325;28;20387;-72
2023/04/14 12:12:11;;;;;;;8.18;2.20;;;16.60;3.00;;;;;;4996537;28;20390;-73
2023/04/14 12:14:38;;;;;;;5.97;2.20;;;16.60;3.40;;;;;;4997316;28;20390;-76
2023/04/14 12:17:06;;;;;;;9.50;2.30;;;16.60;3.20;;;;;;4998287;28;20429;-74
2023/04/14 12:19:33;;;;;;;5.00;2.07;;;16.60;3.60;;;;;;4997113;28;20414;-73
2023/04/14 12:21:58;;;;;;;8.83;2.40;;;16.70;4.90;;;;;;4996221;28;20443;-72
2023/04/14 12:24:39;;;;;;;9.93;2.20;;;16.90;5.30;;;;;;4997265;28;20398;-71
2023/04/14 12:27:06;;;;;;;6.03;2.08;;;16.90;4.60;;;;;;4996244;28;20394;-74
2023/04/14 12:29:33;;;;;;;5.22;2.00;;;16.80;4.10;;;;;;4997901;28;20390;-76
2023/04/14 12:31:59;;;;;;;10.27;3.55;;;16.80;4.80;;;;;;4996097;28;20398;-71
2023/04/14 12:34:25;;;;;;;6.15;2.33;;;16.90;4.70;;;;;;4978761;28;20413;-74
2023/04/14 12:36:52;;;;;;;5.70;2.10;;;16.90;4.70;;;;;;4996235;28;20403;-73
2023/04/14 12:39:19;;;;;;;5.90;2.20;;;17.20;2.50;;;;;;4995712;28;20390;-73
2023/04/14 12:41:45;;;;;;;5.93;2.00;;;17.30;3.20;;;;;;4994182;28;20386;-72
2023/04/14 12:44:14;;;;;;;9.07;2.50;;;17.50;2.00;;;;;;4994813;28;20383;-73
2023/04/14 12:46:48;;;;;;;3.90;2.10;;;17.60;2.60;;;;;;4994621;28;20417;-74
2023/04/14 12:49:36;;;;;;;8.37;2.30;;;17.60;3.30;;;;;;4995423;28;20839;-73
2023/04/14 12:52:03;;;;;;;6.13;2.45;;;18.00;2.80;;;;;;4995054;28;20402;-72